sensor_id;sensor_type;location;lat;lon;timestamp;P1;durP1;ratioP1;P2;durP2;ratioP2
46561;SDS011;32289;42.688;23.330;2022-09-02T00:01:47;20.67;;;10.88;;
46561;SDS011;32289;42.688;23.330;2022-09-02T00:05:28;14.15;;;11.20;;
46561;SDS011;32289;42.688;23.330;2022-09-02T00:09:10;16.58;;;10.98;;
46561;SDS011;32289;42.688;23.330;2022-09-02T00:12:52;22.98;;;10.50;;
46561;SDS011;32289;42.688;23.330;2022-09-02T00:16:33;14.65;;;9.68;;
46561;SDS011;32289;42.688;23.330;2022-09-02T00:20:14;16.60;;;11.30;;
46561;SDS011;32289;42.688;23.330;2022-09-02T00:23:55;14.13;;;10.27;;
46561;SDS011;32289;42.688;23.330;2022-09-02T00:27:35;14.68;;;10.68;;
46561;SDS011;32289;42.688;23.330;2022-09-02T00:31:16;23.23;;;11.75;;
46561;SDS011;32289;42.688;23.330;2022-09-02T00:34:58;15.45;;;10.23;;
46561;SDS011;32289;42.688;23.330;2022-09-02T00:38:39;16.13;;;10.90;;
46561;SDS011;32289;42.688;23.330;2022-09-02T00:42:20;16.33;;;11.32;;
46561;SDS011;32289;42.688;23.330;2022-09-02T00:46:02;12.95;;;10.60;;
46561;SDS011;32289;42.688;23.330;2022-09-02T00:49:45;16.77;;;10.15;;
46561;SDS011;32289;42.688;23.330;2022-09-02T00:53:28;14.93;;;10.95;;
46561;SDS011;32289;42.688;23.330;2022-09-02T00:57:10;20.55;;;10.60;;
46561;SDS011;32289;42.688;23.330;2022-09-02T01:00:56;19.88;;;10.75;;
46561;SDS011;32289;42.688;23.330;2022-09-02T01:04:39;16.17;;;10.55;;
46561;SDS011;32289;42.688;23.330;2022-09-02T01:08:26;15.30;;;10.98;;
46561;SDS011;32289;42.688;23.330;2022-09-02T01:12:09;15.70;;;10.32;;
46561;SDS011;32289;42.688;23.330;2022-09-02T01:15:55;16.27;;;10.55;;
46561;SDS011;32289;42.688;23.330;2022-09-02T01:19:43;12.70;;;10.23;;
46561;SDS011;32289;42.688;23.330;2022-09-02T01:23:30;16.13;;;10.38;;
46561;SDS011;32289;42.688;23.330;2022-09-02T01:27:16;16.05;;;9.50;;
46561;SDS011;32289;42.688;23.330;2022-09-02T01:30:58;13.93;;;9.18;;
46561;SDS011;32289;42.688;23.330;2022-09-02T01:34:40;13.68;;;9.80;;
46561;SDS011;32289;42.688;23.330;2022-09-02T01:38:21;15.75;;;9.95;;
46561;SDS011;32289;42.688;23.330;2022-09-02T01:42:02;12.73;;;9.68;;
46561;SDS011;32289;42.688;23.330;2022-09-02T01:45:47;13.88;;;9.77;;
46561;SDS011;32289;42.688;23.330;2022-09-02T01:49:29;10.93;;;7.15;;
46561;SDS011;32289;42.688;23.330;2022-09-02T01:53:10;7.78;;;5.90;;
46561;SDS011;32289;42.688;23.330;2022-09-02T01:56:50;8.63;;;5.53;;
46561;SDS011;32289;42.688;23.330;2022-09-02T02:00:31;10.68;;;5.05;;
46561;SDS011;32289;42.688;23.330;2022-09-02T02:04:12;7.55;;;5.10;;
46561;SDS011;32289;42.688;23.330;2022-09-02T02:07:53;6.68;;;4.93;;
46561;SDS011;32289;42.688;23.330;2022-09-02T02:11:34;5.55;;;4.00;;
46561;SDS011;32289;42.688;23.330;2022-09-02T02:15:16;4.75;;;3.53;;
46561;SDS011;32289;42.688;23.330;2022-09-02T02:18:58;6.25;;;4.10;;
46561;SDS011;32289;42.688;23.330;2022-09-02T02:22:38;19.48;;;4.45;;
46561;SDS011;32289;42.688;23.330;2022-09-02T02:26:19;6.05;;;4.30;;
46561;SDS011;32289;42.688;23.330;2022-09-02T02:30:00;6.88;;;4.68;;
46561;SDS011;32289;42.688;23.330;2022-09-02T02:33:41;5.63;;;4.05;;
46561;SDS011;32289;42.688;23.330;2022-09-02T02:37:21;5.68;;;3.65;;
46561;SDS011;32289;42.688;23.330;2022-09-02T02:41:03;6.25;;;4.28;;
46561;SDS011;32289;42.688;23.330;2022-09-02T02:44:45;6.70;;;4.15;;
46561;SDS011;32289;42.688;23.330;2022-09-02T02:48:26;7.05;;;4.57;;
46561;SDS011;32289;42.688;23.330;2022-09-02T02:52:07;10.52;;;4.47;;
46561;SDS011;32289;42.688;23.330;2022-09-02T02:55:48;9.73;;;4.80;;
46561;SDS011;32289;42.688;23.330;2022-09-02T02:59:30;7.22;;;5.20;;
46561;SDS011;32289;42.688;23.330;2022-09-02T03:03:11;8.88;;;5.50;;
46561;SDS011;32289;42.688;23.330;2022-09-02T03:06:53;6.28;;;4.90;;
46561;SDS011;32289;42.688;23.330;2022-09-02T03:10:35;7.55;;;5.60;;
46561;SDS011;32289;42.688;23.330;2022-09-02T03:14:17;7.93;;;5.40;;
46561;SDS011;32289;42.688;23.330;2022-09-02T03:18:01;7.72;;;6.03;;
46561;SDS011;32289;42.688;23.330;2022-09-02T03:21:42;6.90;;;5.43;;
46561;SDS011;32289;42.688;23.330;2022-09-02T03:25:26;7.55;;;5.68;;
46561;SDS011;32289;42.688;23.330;2022-09-02T03:29:08;10.57;;;5.70;;
46561;SDS011;32289;42.688;23.330;2022-09-02T03:32:49;9.18;;;6.40;;
46561;SDS011;32289;42.688;23.330;2022-09-02T03:36:33;9.63;;;5.93;;
46561;SDS011;32289;42.688;23.330;2022-09-02T03:40:21;7.15;;;5.93;;
46561;SDS011;32289;42.688;23.330;2022-09-02T03:44:03;9.00;;;6.20;;
46561;SDS011;32289;42.688;23.330;2022-09-02T03:47:45;9.13;;;6.57;;
46561;SDS011;32289;42.688;23.330;2022-09-02T03:51:33;9.23;;;6.50;;
46561;SDS011;32289;42.688;23.330;2022-09-02T03:55:14;9.77;;;6.13;;
46561;SDS011;32289;42.688;23.330;2022-09-02T03:58:55;8.68;;;6.32;;
46561;SDS011;32289;42.688;23.330;2022-09-02T04:02:36;10.98;;;7.30;;
46561;SDS011;32289;42.688;23.330;2022-09-02T04:06:17;12.45;;;7.18;;
46561;SDS011;32289;42.688;23.330;2022-09-02T04:09:59;10.60;;;7.00;;
46561;SDS011;32289;42.688;23.330;2022-09-02T04:13:41;10.82;;;6.93;;
46561;SDS011;32289;42.688;23.330;2022-09-02T04:17:25;10.35;;;6.88;;
46561;SDS011;32289;42.688;23.330;2022-09-02T04:21:06;14.43;;;6.80;;
46561;SDS011;32289;42.688;23.330;2022-09-02T04:24:47;13.88;;;7.28;;
46561;SDS011;32289;42.688;23.330;2022-09-02T04:28:28;10.18;;;6.95;;
46561;SDS011;32289;42.688;23.330;2022-09-02T04:32:08;9.65;;;6.05;;
46561;SDS011;32289;42.688;23.330;2022-09-02T04:35:49;9.52;;;6.80;;
46561;SDS011;32289;42.688;23.330;2022-09-02T04:39:31;11.98;;;7.38;;
46561;SDS011;32289;42.688;23.330;2022-09-02T04:43:12;10.30;;;6.93;;
46561;SDS011;32289;42.688;23.330;2022-09-02T04:46:53;11.45;;;7.15;;
46561;SDS011;32289;42.688;23.330;2022-09-02T04:50:34;10.95;;;7.72;;
46561;SDS011;32289;42.688;23.330;2022-09-02T04:54:17;11.85;;;7.82;;
46561;SDS011;32289;42.688;23.330;2022-09-02T04:58:01;11.07;;;7.97;;
46561;SDS011;32289;42.688;23.330;2022-09-02T05:01:42;17.05;;;8.73;;
46561;SDS011;32289;42.688;23.330;2022-09-02T05:05:23;10.95;;;7.55;;
46561;SDS011;32289;42.688;23.330;2022-09-02T05:09:04;15.10;;;8.10;;
46561;SDS011;32289;42.688;23.330;2022-09-02T05:12:45;10.05;;;7.00;;
46561;SDS011;32289;42.688;23.330;2022-09-02T05:16:27;9.88;;;6.78;;
46561;SDS011;32289;42.688;23.330;2022-09-02T05:20:09;10.68;;;7.65;;
46561;SDS011;32289;42.688;23.330;2022-09-02T05:23:51;11.00;;;7.43;;
46561;SDS011;32289;42.688;23.330;2022-09-02T05:27:32;11.95;;;7.10;;
46561;SDS011;32289;42.688;23.330;2022-09-02T05:31:13;13.10;;;8.32;;
46561;SDS011;32289;42.688;23.330;2022-09-02T05:34:56;10.45;;;7.88;;
46561;SDS011;32289;42.688;23.330;2022-09-02T05:38:37;11.68;;;7.63;;
46561;SDS011;32289;42.688;23.330;2022-09-02T05:42:19;10.75;;;8.02;;
46561;SDS011;32289;42.688;23.330;2022-09-02T05:46:03;12.65;;;7.20;;
46561;SDS011;32289;42.688;23.330;2022-09-02T05:49:51;13.15;;;7.80;;
46561;SDS011;32289;42.688;23.330;2022-09-02T05:53:32;12.25;;;7.72;;
46561;SDS011;32289;42.688;23.330;2022-09-02T05:57:14;9.43;;;7.32;;
46561;SDS011;32289;42.688;23.330;2022-09-02T06:00:56;13.70;;;7.75;;
46561;SDS011;32289;42.688;23.330;2022-09-02T06:04:39;11.80;;;7.45;;
46561;SDS011;32289;42.688;23.330;2022-09-02T06:08:24;13.52;;;8.23;;
46561;SDS011;32289;42.688;23.330;2022-09-02T06:12:05;11.98;;;7.82;;
46561;SDS011;32289;42.688;23.330;2022-09-02T06:15:48;11.75;;;8.15;;
46561;SDS011;32289;42.688;23.330;2022-09-02T06:19:29;10.60;;;7.57;;
46561;SDS011;32289;42.688;23.330;2022-09-02T06:23:12;9.57;;;7.43;;
46561;SDS011;32289;42.688;23.330;2022-09-02T06:26:53;11.73;;;7.43;;
46561;SDS011;32289;42.688;23.330;2022-09-02T06:30:37;10.20;;;7.13;;
46561;SDS011;32289;42.688;23.330;2022-09-02T06:34:22;11.60;;;8.02;;
46561;SDS011;32289;42.688;23.330;2022-09-02T06:38:09;12.38;;;7.45;;
46561;SDS011;32289;42.688;23.330;2022-09-02T06:41:54;13.50;;;7.70;;
46561;SDS011;32289;42.688;23.330;2022-09-02T06:45:38;13.63;;;8.45;;
46561;SDS011;32289;42.688;23.330;2022-09-02T06:49:19;10.38;;;7.13;;
46561;SDS011;32289;42.688;23.330;2022-09-02T06:53:01;10.05;;;7.55;;
46561;SDS011;32289;42.688;23.330;2022-09-02T06:56:44;11.23;;;7.95;;
46561;SDS011;32289;42.688;23.330;2022-09-02T07:00:25;14.10;;;8.48;;
46561;SDS011;32289;42.688;23.330;2022-09-02T07:04:07;13.43;;;8.52;;
46561;SDS011;32289;42.688;23.330;2022-09-02T07:08:07;13.88;;;8.52;;
46561;SDS011;32289;42.688;23.330;2022-09-02T07:11:48;12.27;;;8.38;;
46561;SDS011;32289;42.688;23.330;2022-09-02T07:15:29;9.18;;;7.80;;
46561;SDS011;32289;42.688;23.330;2022-09-02T07:19:11;13.68;;;8.60;;
46561;SDS011;32289;42.688;23.330;2022-09-02T07:22:54;11.68;;;8.25;;
46561;SDS011;32289;42.688;23.330;2022-09-02T07:26:35;14.05;;;7.65;;
46561;SDS011;32289;42.688;23.330;2022-09-02T07:30:16;10.73;;;7.90;;
46561;SDS011;32289;42.688;23.330;2022-09-02T07:33:57;12.15;;;8.32;;
46561;SDS011;32289;42.688;23.330;2022-09-02T07:37:38;12.93;;;9.10;;
46561;SDS011;32289;42.688;23.330;2022-09-02T07:41:22;12.38;;;8.02;;
46561;SDS011;32289;42.688;23.330;2022-09-02T07:45:04;12.95;;;8.07;;
46561;SDS011;32289;42.688;23.330;2022-09-02T07:48:47;10.63;;;8.07;;
46561;SDS011;32289;42.688;23.330;2022-09-02T07:52:33;14.82;;;7.82;;
46561;SDS011;32289;42.688;23.330;2022-09-02T07:56:14;14.00;;;7.57;;
46561;SDS011;32289;42.688;23.330;2022-09-02T07:59:56;10.32;;;7.60;;
46561;SDS011;32289;42.688;23.330;2022-09-02T08:03:37;9.60;;;7.43;;
46561;SDS011;32289;42.688;23.330;2022-09-02T08:07:23;12.10;;;7.68;;
46561;SDS011;32289;42.688;23.330;2022-09-02T08:11:04;11.90;;;7.00;;
46561;SDS011;32289;42.688;23.330;2022-09-02T08:14:45;12.30;;;7.68;;
46561;SDS011;32289;42.688;23.330;2022-09-02T08:18:37;13.82;;;7.35;;
46561;SDS011;32289;42.688;23.330;2022-09-02T08:22:18;10.60;;;6.95;;
46561;SDS011;32289;42.688;23.330;2022-09-02T08:26:05;11.63;;;7.47;;
46561;SDS011;32289;42.688;23.330;2022-09-02T08:29:46;8.15;;;6.28;;
46561;SDS011;32289;42.688;23.330;2022-09-02T08:33:27;9.52;;;6.22;;
46561;SDS011;32289;42.688;23.330;2022-09-02T08:37:10;14.32;;;6.72;;
46561;SDS011;32289;42.688;23.330;2022-09-02T08:40:55;15.82;;;8.63;;
46561;SDS011;32289;42.688;23.330;2022-09-02T08:44:36;16.15;;;9.18;;
46561;SDS011;32289;42.688;23.330;2022-09-02T08:48:35;10.07;;;7.10;;
46561;SDS011;32289;42.688;23.330;2022-09-02T08:52:30;8.20;;;6.60;;
46561;SDS011;32289;42.688;23.330;2022-09-02T08:56:22;15.82;;;9.23;;
46561;SDS011;32289;42.688;23.330;2022-09-02T09:00:05;12.38;;;7.45;;
46561;SDS011;32289;42.688;23.330;2022-09-02T09:03:57;10.35;;;7.07;;
46561;SDS011;32289;42.688;23.330;2022-09-02T09:23:31;12.00;;;7.03;;
46561;SDS011;32289;42.688;23.330;2022-09-02T09:27:19;8.45;;;6.78;;
46561;SDS011;32289;42.688;23.330;2022-09-02T09:31:01;8.38;;;6.28;;
46561;SDS011;32289;42.688;23.330;2022-09-02T09:38:34;10.27;;;6.85;;
46561;SDS011;32289;42.688;23.330;2022-09-02T09:42:49;12.95;;;9.07;;
46561;SDS011;32289;42.688;23.330;2022-09-02T09:46:31;17.88;;;12.10;;
46561;SDS011;32289;42.688;23.330;2022-09-02T09:50:14;13.32;;;7.80;;
46561;SDS011;32289;42.688;23.330;2022-09-02T09:54:17;15.57;;;9.52;;
46561;SDS011;32289;42.688;23.330;2022-09-02T09:58:06;17.73;;;9.52;;
46561;SDS011;32289;42.688;23.330;2022-09-02T10:01:49;10.77;;;7.97;;
46561;SDS011;32289;42.688;23.330;2022-09-02T10:05:32;10.45;;;7.32;;
46561;SDS011;32289;42.688;23.330;2022-09-02T10:13:00;11.65;;;7.57;;
46561;SDS011;32289;42.688;23.330;2022-09-02T10:40:35;14.35;;;9.35;;
46561;SDS011;32289;42.688;23.330;2022-09-02T10:44:30;15.20;;;8.85;;
46561;SDS011;32289;42.688;23.330;2022-09-02T10:56:18;12.25;;;8.15;;
46561;SDS011;32289;42.688;23.330;2022-09-02T11:07:55;12.00;;;8.02;;
46561;SDS011;32289;42.688;23.330;2022-09-02T11:11:50;10.75;;;7.47;;
46561;SDS011;32289;42.688;23.330;2022-09-02T11:15:56;12.35;;;7.68;;
46561;SDS011;32289;42.688;23.330;2022-09-02T11:19:41;13.07;;;8.07;;
46561;SDS011;32289;42.688;23.330;2022-09-02T11:27:34;9.02;;;8.00;;
46561;SDS011;32289;42.688;23.330;2022-09-02T11:31:27;12.55;;;8.80;;
46561;SDS011;32289;42.688;23.330;2022-09-02T11:35:11;12.27;;;8.05;;
46561;SDS011;32289;42.688;23.330;2022-09-02T11:39:09;11.77;;;8.55;;
46561;SDS011;32289;42.688;23.330;2022-09-02T11:51:45;11.57;;;9.02;;
46561;SDS011;32289;42.688;23.330;2022-09-02T11:55:40;11.52;;;9.45;;
46561;SDS011;32289;42.688;23.330;2022-09-02T12:03:30;13.50;;;9.43;;
46561;SDS011;32289;42.688;23.330;2022-09-02T12:10:56;10.18;;;8.98;;
46561;SDS011;32289;42.688;23.330;2022-09-02T12:18:26;12.70;;;10.38;;
46561;SDS011;32289;42.688;23.330;2022-09-02T12:26:03;12.02;;;9.88;;
46561;SDS011;32289;42.688;23.330;2022-09-02T12:29:48;15.50;;;9.52;;
46561;SDS011;32289;42.688;23.330;2022-09-02T12:33:41;14.50;;;10.05;;
46561;SDS011;32289;42.688;23.330;2022-09-02T12:38:19;12.38;;;10.15;;
46561;SDS011;32289;42.688;23.330;2022-09-02T12:45:45;16.88;;;11.77;;
46561;SDS011;32289;42.688;23.330;2022-09-02T12:49:28;15.90;;;11.15;;
46561;SDS011;32289;42.688;23.330;2022-09-02T12:57:04;14.30;;;11.48;;
46561;SDS011;32289;42.688;23.330;2022-09-02T13:00:57;16.38;;;12.02;;
46561;SDS011;32289;42.688;23.330;2022-09-02T13:04:50;16.15;;;13.02;;
46561;SDS011;32289;42.688;23.330;2022-09-02T13:33:17;15.95;;;12.65;;
46561;SDS011;32289;42.688;23.330;2022-09-02T13:36:58;16.85;;;12.80;;
46561;SDS011;32289;42.688;23.330;2022-09-02T13:40:39;18.10;;;11.88;;
46561;SDS011;32289;42.688;23.330;2022-09-02T13:44:26;19.58;;;12.82;;
46561;SDS011;32289;42.688;23.330;2022-09-02T13:48:14;15.60;;;13.63;;
46561;SDS011;32289;42.688;23.330;2022-09-02T13:51:58;18.45;;;12.73;;
46561;SDS011;32289;42.688;23.330;2022-09-02T13:55:39;21.95;;;14.43;;
46561;SDS011;32289;42.688;23.330;2022-09-02T13:59:31;21.27;;;13.10;;
46561;SDS011;32289;42.688;23.330;2022-09-02T14:03:17;20.83;;;13.32;;
46561;SDS011;32289;42.688;23.330;2022-09-02T14:06:59;32.22;;;14.68;;
46561;SDS011;32289;42.688;23.330;2022-09-02T14:10:40;49.20;;;19.23;;
46561;SDS011;32289;42.688;23.330;2022-09-02T14:14:23;35.53;;;19.92;;
46561;SDS011;32289;42.688;23.330;2022-09-02T14:18:18;31.02;;;16.70;;
46561;SDS011;32289;42.688;23.330;2022-09-02T14:22:03;19.80;;;11.43;;
46561;SDS011;32289;42.688;23.330;2022-09-02T14:25:49;16.15;;;10.15;;
46561;SDS011;32289;42.688;23.330;2022-09-02T14:29:32;21.65;;;11.07;;
46561;SDS011;32289;42.688;23.330;2022-09-02T14:37:26;19.08;;;10.38;;
46561;SDS011;32289;42.688;23.330;2022-09-02T14:45:05;16.80;;;10.63;;
46561;SDS011;32289;42.688;23.330;2022-09-02T14:49:05;15.40;;;9.88;;
46561;SDS011;32289;42.688;23.330;2022-09-02T14:52:48;16.92;;;9.65;;
46561;SDS011;32289;42.688;23.330;2022-09-02T14:56:42;19.30;;;9.35;;
46561;SDS011;32289;42.688;23.330;2022-09-02T15:00:24;13.60;;;8.27;;
46561;SDS011;32289;42.688;23.330;2022-09-02T15:04:05;17.45;;;10.18;;
46561;SDS011;32289;42.688;23.330;2022-09-02T15:07:46;18.65;;;10.27;;
46561;SDS011;32289;42.688;23.330;2022-09-02T15:11:26;16.85;;;9.50;;
46561;SDS011;32289;42.688;23.330;2022-09-02T15:15:07;16.33;;;9.30;;
46561;SDS011;32289;42.688;23.330;2022-09-02T15:18:48;18.67;;;10.25;;
46561;SDS011;32289;42.688;23.330;2022-09-02T15:22:29;17.83;;;9.40;;
46561;SDS011;32289;42.688;23.330;2022-09-02T15:26:09;21.17;;;12.43;;
46561;SDS011;32289;42.688;23.330;2022-09-02T15:29:50;16.23;;;9.93;;
46561;SDS011;32289;42.688;23.330;2022-09-02T15:33:31;19.30;;;11.27;;
46561;SDS011;32289;42.688;23.330;2022-09-02T15:37:12;19.30;;;10.00;;
46561;SDS011;32289;42.688;23.330;2022-09-02T15:40:53;19.90;;;10.27;;
46561;SDS011;32289;42.688;23.330;2022-09-02T15:44:33;17.67;;;10.50;;
46561;SDS011;32289;42.688;23.330;2022-09-02T15:48:14;17.50;;;10.80;;
46561;SDS011;32289;42.688;23.330;2022-09-02T15:51:55;17.52;;;11.07;;
46561;SDS011;32289;42.688;23.330;2022-09-02T15:55:36;17.67;;;11.15;;
46561;SDS011;32289;42.688;23.330;2022-09-02T15:59:17;19.52;;;11.52;;
46561;SDS011;32289;42.688;23.330;2022-09-02T16:03:00;21.33;;;11.07;;
46561;SDS011;32289;42.688;23.330;2022-09-02T16:06:42;19.63;;;12.40;;
46561;SDS011;32289;42.688;23.330;2022-09-02T16:10:24;19.23;;;12.40;;
46561;SDS011;32289;42.688;23.330;2022-09-02T16:14:05;19.23;;;10.50;;
46561;SDS011;32289;42.688;23.330;2022-09-02T16:17:46;19.27;;;11.05;;
46561;SDS011;32289;42.688;23.330;2022-09-02T16:21:29;21.67;;;10.38;;
46561;SDS011;32289;42.688;23.330;2022-09-02T16:25:09;12.98;;;8.30;;
46561;SDS011;32289;42.688;23.330;2022-09-02T16:28:55;14.63;;;10.18;;
46561;SDS011;32289;42.688;23.330;2022-09-02T16:32:37;12.70;;;7.63;;
46561;SDS011;32289;42.688;23.330;2022-09-02T16:36:18;13.20;;;7.35;;
46561;SDS011;32289;42.688;23.330;2022-09-02T16:39:59;11.52;;;7.00;;
46561;SDS011;32289;42.688;23.330;2022-09-02T16:43:42;12.15;;;6.45;;
46561;SDS011;32289;42.688;23.330;2022-09-02T16:47:23;14.32;;;6.75;;
46561;SDS011;32289;42.688;23.330;2022-09-02T16:51:04;10.05;;;5.60;;
46561;SDS011;32289;42.688;23.330;2022-09-02T16:54:45;12.57;;;6.15;;
46561;SDS011;32289;42.688;23.330;2022-09-02T16:58:27;12.15;;;5.47;;
46561;SDS011;32289;42.688;23.330;2022-09-02T17:02:08;10.02;;;4.80;;
46561;SDS011;32289;42.688;23.330;2022-09-02T17:05:50;9.93;;;5.45;;
46561;SDS011;32289;42.688;23.330;2022-09-02T17:09:30;7.10;;;4.90;;
46561;SDS011;32289;42.688;23.330;2022-09-02T17:13:11;9.20;;;4.55;;
46561;SDS011;32289;42.688;23.330;2022-09-02T17:16:53;12.00;;;4.57;;
46561;SDS011;32289;42.688;23.330;2022-09-02T17:20:34;8.95;;;5.22;;
46561;SDS011;32289;42.688;23.330;2022-09-02T17:24:15;10.70;;;5.00;;
46561;SDS011;32289;42.688;23.330;2022-09-02T17:27:57;10.48;;;5.50;;
46561;SDS011;32289;42.688;23.330;2022-09-02T17:31:39;8.05;;;4.97;;
46561;SDS011;32289;42.688;23.330;2022-09-02T17:35:20;13.07;;;5.53;;
46561;SDS011;32289;42.688;23.330;2022-09-02T17:39:12;8.52;;;5.15;;
46561;SDS011;32289;42.688;23.330;2022-09-02T17:42:55;8.70;;;5.55;;
46561;SDS011;32289;42.688;23.330;2022-09-02T17:46:35;7.18;;;5.10;;
46561;SDS011;32289;42.688;23.330;2022-09-02T17:50:16;8.68;;;5.55;;
46561;SDS011;32289;42.688;23.330;2022-09-02T17:53:57;9.23;;;5.45;;
46561;SDS011;32289;42.688;23.330;2022-09-02T17:57:56;9.85;;;6.28;;
46561;SDS011;32289;42.688;23.330;2022-09-02T18:09:19;8.25;;;5.47;;
46561;SDS011;32289;42.688;23.330;2022-09-02T18:13:03;10.13;;;6.45;;
46561;SDS011;32289;42.688;23.330;2022-09-02T18:20:41;11.02;;;6.28;;
46561;SDS011;32289;42.688;23.330;2022-09-02T18:37:05;10.07;;;7.07;;
46561;SDS011;32289;42.688;23.330;2022-09-02T18:40:50;11.38;;;7.25;;
46561;SDS011;32289;42.688;23.330;2022-09-02T18:48:50;12.48;;;6.93;;
46561;SDS011;32289;42.688;23.330;2022-09-02T18:52:35;10.60;;;6.38;;
46561;SDS011;32289;42.688;23.330;2022-09-02T18:56:16;10.27;;;5.70;;
46561;SDS011;32289;42.688;23.330;2022-09-02T19:00:04;8.93;;;6.13;;
46561;SDS011;32289;42.688;23.330;2022-09-02T19:03:48;10.82;;;6.22;;
46561;SDS011;32289;42.688;23.330;2022-09-02T19:07:29;12.20;;;6.35;;
46561;SDS011;32289;42.688;23.330;2022-09-02T19:11:33;9.40;;;6.18;;
46561;SDS011;32289;42.688;23.330;2022-09-02T19:15:14;13.52;;;6.40;;
46561;SDS011;32289;42.688;23.330;2022-09-02T19:18:56;10.57;;;6.47;;
46561;SDS011;32289;42.688;23.330;2022-09-02T19:22:38;11.35;;;6.07;;
46561;SDS011;32289;42.688;23.330;2022-09-02T19:26:22;8.68;;;6.10;;
46561;SDS011;32289;42.688;23.330;2022-09-02T19:30:07;10.13;;;5.97;;
46561;SDS011;32289;42.688;23.330;2022-09-02T19:33:53;10.60;;;6.13;;
46561;SDS011;32289;42.688;23.330;2022-09-02T19:37:38;12.77;;;6.50;;
46561;SDS011;32289;42.688;23.330;2022-09-02T19:41:19;8.43;;;5.93;;
46561;SDS011;32289;42.688;23.330;2022-09-02T19:45:07;10.20;;;6.25;;
46561;SDS011;32289;42.688;23.330;2022-09-02T19:48:48;11.13;;;6.10;;
46561;SDS011;32289;42.688;23.330;2022-09-02T19:52:29;8.00;;;5.68;;
46561;SDS011;32289;42.688;23.330;2022-09-02T19:56:10;9.77;;;5.72;;
46561;SDS011;32289;42.688;23.330;2022-09-02T19:59:55;8.85;;;5.88;;
46561;SDS011;32289;42.688;23.330;2022-09-02T20:03:36;11.27;;;6.10;;
46561;SDS011;32289;42.688;23.330;2022-09-02T20:07:17;7.82;;;4.63;;
46561;SDS011;32289;42.688;23.330;2022-09-02T20:10:58;9.75;;;5.55;;
46561;SDS011;32289;42.688;23.330;2022-09-02T20:14:41;13.60;;;5.20;;
46561;SDS011;32289;42.688;23.330;2022-09-02T20:18:23;9.23;;;5.55;;
46561;SDS011;32289;42.688;23.330;2022-09-02T20:22:05;9.50;;;5.53;;
46561;SDS011;32289;42.688;23.330;2022-09-02T20:33:53;8.77;;;5.72;;
46561;SDS011;32289;42.688;23.330;2022-09-02T20:45:54;10.65;;;4.30;;
46561;SDS011;32289;42.688;23.330;2022-09-02T20:49:59;10.30;;;4.88;;
46561;SDS011;32289;42.688;23.330;2022-09-02T21:01:56;13.68;;;5.97;;
46561;SDS011;32289;42.688;23.330;2022-09-02T21:05:40;6.72;;;4.85;;
46561;SDS011;32289;42.688;23.330;2022-09-02T21:17:47;8.88;;;4.82;;
46561;SDS011;32289;42.688;23.330;2022-09-02T21:21:51;10.32;;;5.07;;
46561;SDS011;32289;42.688;23.330;2022-09-02T21:25:36;8.88;;;4.57;;
46561;SDS011;32289;42.688;23.330;2022-09-02T21:30:00;10.30;;;4.72;;
46561;SDS011;32289;42.688;23.330;2022-09-02T21:33:45;7.88;;;3.97;;
46561;SDS011;32289;42.688;23.330;2022-09-02T21:37:29;8.32;;;4.57;;
46561;SDS011;32289;42.688;23.330;2022-09-02T21:45:16;6.05;;;3.92;;
46561;SDS011;32289;42.688;23.330;2022-09-02T21:49:38;8.18;;;3.67;;
46561;SDS011;32289;42.688;23.330;2022-09-02T21:53:51;4.88;;;2.90;;
46561;SDS011;32289;42.688;23.330;2022-09-02T22:01:39;7.53;;;3.58;;
46561;SDS011;32289;42.688;23.330;2022-09-02T22:09:21;6.78;;;3.60;;
46561;SDS011;32289;42.688;23.330;2022-09-02T22:13:09;6.65;;;4.20;;
46561;SDS011;32289;42.688;23.330;2022-09-02T22:16:57;7.82;;;4.10;;
46561;SDS011;32289;42.688;23.330;2022-09-02T22:20:58;7.93;;;3.90;;
46561;SDS011;32289;42.688;23.330;2022-09-02T22:24:44;8.15;;;3.58;;
46561;SDS011;32289;42.688;23.330;2022-09-02T22:28:33;7.05;;;4.00;;
46561;SDS011;32289;42.688;23.330;2022-09-02T22:32:18;6.40;;;3.50;;
46561;SDS011;32289;42.688;23.330;2022-09-02T22:36:10;13.27;;;4.15;;
46561;SDS011;32289;42.688;23.330;2022-09-02T22:40:14;7.55;;;3.42;;
46561;SDS011;32289;42.688;23.330;2022-09-02T22:44:13;7.20;;;3.72;;
46561;SDS011;32289;42.688;23.330;2022-09-02T22:48:03;6.55;;;3.90;;
46561;SDS011;32289;42.688;23.330;2022-09-02T22:56:38;5.10;;;3.60;;
46561;SDS011;32289;42.688;23.330;2022-09-02T23:00:24;6.68;;;3.85;;
46561;SDS011;32289;42.688;23.330;2022-09-02T23:08:05;9.30;;;3.58;;
46561;SDS011;32289;42.688;23.330;2022-09-02T23:15:48;9.40;;;4.32;;
46561;SDS011;32289;42.688;23.330;2022-09-02T23:23:38;7.60;;;4.32;;
46561;SDS011;32289;42.688;23.330;2022-09-02T23:27:36;6.70;;;3.63;;
46561;SDS011;32289;42.688;23.330;2022-09-02T23:31:45;6.20;;;3.90;;
46561;SDS011;32289;42.688;23.330;2022-09-02T23:39:35;7.40;;;3.85;;
46561;SDS011;32289;42.688;23.330;2022-09-02T23:43:28;7.10;;;4.13;;
46561;SDS011;32289;42.688;23.330;2022-09-02T23:51:13;6.07;;;3.88;;
46561;SDS011;32289;42.688;23.330;2022-09-02T23:54:59;7.07;;;3.58;;
